Cut and Shoot, Texas
Current Conditions -  °F | °C
As of 10:53 AM on Sunday 23 Nov 2014 (Local Time) from KCXO Reporting Station
Clear Clear  
Wind Chill: 67°   Ceiling: Unl
Heat Index: 67°   Visibility: 10mi
Dew Point: 58°   Wind: 9mph
Humidity: 73%   Direction: 230°SW
Pressure: 29.64"   Gusts: NA
Location:  30.3137°N, 95.2987°W
Report Text: KCXO 231653Z 23008KT 10SM CLR 19/14 A2964 RMK AO2 SLP034 T01940144
Loading
Personal Weather Stations






























Interactive Weather Map New forecast layout! Learn more

10-Day Weather Forecast

Advertisements
Track Severe Weather on mobile